createdAt,value
2022-10-18T00:02:05.852Z,18.90
2022-10-18T00:04:34.608Z,18.90
2022-10-18T00:07:02.912Z,18.90
2022-10-18T00:09:31.237Z,18.90
2022-10-18T00:12:00.995Z,18.90
2022-10-18T00:14:29.387Z,18.90
2022-10-18T00:16:59.097Z,18.90
2022-10-18T00:19:29.311Z,19.00
2022-10-18T00:21:57.944Z,19.00
2022-10-18T00:24:26.502Z,19.00
2022-10-18T00:26:54.761Z,19.00
2022-10-18T00:29:23.036Z,19.00
2022-10-18T00:31:51.425Z,19.00
2022-10-18T00:34:21.112Z,18.90
2022-10-18T00:36:49.414Z,18.90
2022-10-18T00:39:21.926Z,18.90
2022-10-18T00:41:50.969Z,18.80
2022-10-18T00:44:56.833Z,18.80
2022-10-18T00:47:25.277Z,18.70
2022-10-18T00:49:57.764Z,18.70
2022-10-18T00:52:31.814Z,18.60
2022-10-18T00:55:00.643Z,18.60
2022-10-18T00:57:29.281Z,18.60
2022-10-18T00:59:57.834Z,18.60
2022-10-18T01:02:26.894Z,18.60
2022-10-18T01:04:56.786Z,18.50
2022-10-18T01:07:43.243Z,18.50
2022-10-18T01:10:22.670Z,18.40
2022-10-18T01:13:02.049Z,18.40
2022-10-18T01:15:34.887Z,18.30
2022-10-18T01:18:10.481Z,18.20
2022-10-18T01:21:10.660Z,18.20
2022-10-18T01:23:56.540Z,18.20
2022-10-18T01:26:39.363Z,18.20
2022-10-18T01:29:16.473Z,18.20
2022-10-18T01:31:49.121Z,18.10
2022-10-18T01:34:19.838Z,18.10
2022-10-18T01:36:52.698Z,18.10
2022-10-18T01:39:24.804Z,18.00
2022-10-18T01:41:55.482Z,18.10
2022-10-18T01:44:28.041Z,18.00
2022-10-18T01:46:59.166Z,18.00
2022-10-18T01:49:27.965Z,18.00
2022-10-18T01:51:56.361Z,18.00
2022-10-18T01:54:32.029Z,18.00
2022-10-18T01:57:04.718Z,17.90
2022-10-18T01:59:45.517Z,17.90
2022-10-18T02:02:24.873Z,17.90
2022-10-18T02:05:00.869Z,17.80
2022-10-18T02:07:35.023Z,17.80
2022-10-18T02:10:10.835Z,17.80
2022-10-18T02:12:43.677Z,17.80
2022-10-18T02:15:15.481Z,17.80
2022-10-18T02:17:46.389Z,17.70
2022-10-18T02:20:20.466Z,17.70
2022-10-18T02:22:51.707Z,17.60
2022-10-18T02:25:25.240Z,17.60
2022-10-18T02:27:56.150Z,17.50
2022-10-18T02:30:29.313Z,17.50
2022-10-18T02:33:02.311Z,17.40
2022-10-18T02:35:34.711Z,17.30
2022-10-18T02:38:04.865Z,17.30
2022-10-18T02:40:33.148Z,17.20
2022-10-18T02:43:01.491Z,17.10
2022-10-18T02:45:30.036Z,17.00
2022-10-18T02:47:59.869Z,16.90
2022-10-18T02:50:28.175Z,16.80
2022-10-18T02:52:56.437Z,16.70
2022-10-18T02:55:24.722Z,16.60
2022-10-18T02:57:52.995Z,16.50
2022-10-18T03:00:21.502Z,16.50
2022-10-18T03:02:50.448Z,16.40
2022-10-18T03:05:20.097Z,16.40
2022-10-18T03:07:48.412Z,16.40
2022-10-18T03:10:16.982Z,16.30
2022-10-18T03:12:45.281Z,16.20
2022-10-18T03:15:13.610Z,16.20
2022-10-18T03:17:41.867Z,16.20
2022-10-18T03:20:11.094Z,16.10
2022-10-18T03:22:41.345Z,16.10
2022-10-18T03:25:10.190Z,16.00
2022-10-18T03:27:38.437Z,15.90
2022-10-18T03:30:08.839Z,15.90
2022-10-18T03:32:37.123Z,15.80
2022-10-18T03:35:06.019Z,15.80
2022-10-18T03:37:34.872Z,15.80
2022-10-18T03:40:05.658Z,15.80
2022-10-18T03:42:34.351Z,15.70
2022-10-18T03:45:03.005Z,15.70
2022-10-18T03:47:31.306Z,15.70
2022-10-18T03:49:59.548Z,15.70
2022-10-18T03:52:28.170Z,15.70
2022-10-18T03:54:56.665Z,15.70
2022-10-18T03:57:26.294Z,15.70
2022-10-18T03:59:54.609Z,15.70
2022-10-18T04:02:22.910Z,15.70
2022-10-18T04:04:51.238Z,15.70
2022-10-18T04:07:19.672Z,15.70
2022-10-18T04:09:47.909Z,15.80
2022-10-18T04:12:16.445Z,15.90
2022-10-18T04:14:46.107Z,15.90
2022-10-18T04:17:14.501Z,16.00
2022-10-18T04:19:43.033Z,16.10
2022-10-18T04:22:12.650Z,16.10
2022-10-18T04:24:40.892Z,16.20
2022-10-18T04:27:09.553Z,16.30
2022-10-18T04:29:37.829Z,16.30
2022-10-18T04:32:07.756Z,16.40
2022-10-18T04:34:36.391Z,16.60
2022-10-18T04:37:04.691Z,16.70
2022-10-18T04:39:32.910Z,16.80
2022-10-18T04:42:01.424Z,16.90
2022-10-18T04:44:29.830Z,17.10
2022-10-18T04:46:58.098Z,17.20
2022-10-18T04:49:27.808Z,17.30
2022-10-18T04:51:56.080Z,17.30
2022-10-18T04:54:26.560Z,17.40
2022-10-18T04:56:56.934Z,17.50
2022-10-18T04:59:25.304Z,17.50
2022-10-18T05:01:53.749Z,17.60
2022-10-18T05:04:22.074Z,17.60
2022-10-18T05:06:51.716Z,17.70
2022-10-18T05:09:22.298Z,17.70
2022-10-18T05:11:50.571Z,17.80
2022-10-18T05:14:19.033Z,17.80
2022-10-18T05:16:47.314Z,17.80
2022-10-18T05:19:15.638Z,17.90
2022-10-18T05:21:43.958Z,17.90
2022-10-18T05:24:14.090Z,17.90
2022-10-18T05:26:42.279Z,18.00
2022-10-18T05:29:10.674Z,18.00
2022-10-18T05:31:39.357Z,18.00
2022-10-18T05:34:07.638Z,18.00
2022-10-18T05:36:35.883Z,18.00
2022-10-18T05:39:05.745Z,18.00
2022-10-18T05:41:35.675Z,18.00
2022-10-18T05:44:04.956Z,18.00
2022-10-18T05:46:33.581Z,18.00
2022-10-18T05:49:02.135Z,18.00
2022-10-18T05:51:30.425Z,18.00
2022-10-18T05:53:58.905Z,18.10
2022-10-18T05:56:27.481Z,18.10
2022-10-18T05:58:57.485Z,18.10
2022-10-18T06:01:25.816Z,18.10
2022-10-18T06:03:54.041Z,18.20
2022-10-18T06:06:22.319Z,18.20
2022-10-18T06:08:50.972Z,18.20
2022-10-18T06:11:22.724Z,18.20
2022-10-18T06:13:53.068Z,18.20
2022-10-18T06:16:28.497Z,18.20
2022-10-18T06:18:59.949Z,18.30
2022-10-18T06:21:28.615Z,18.30
2022-10-18T06:23:59.629Z,18.30
2022-10-18T06:26:28.989Z,18.40
2022-10-18T06:28:57.429Z,18.30
2022-10-18T06:31:27.061Z,18.30
2022-10-18T06:33:57.767Z,18.30
2022-10-18T06:36:26.527Z,18.30
2022-10-18T06:38:56.604Z,18.40
2022-10-18T06:41:25.285Z,18.40
2022-10-18T06:43:57.352Z,18.30
2022-10-18T06:46:27.370Z,18.30
2022-10-18T06:48:55.598Z,18.40
2022-10-18T06:51:23.864Z,18.40
2022-10-18T06:54:13.075Z,18.40
2022-10-18T06:56:40.789Z,18.40
2022-10-18T06:59:09.090Z,18.40
2022-10-18T07:01:38.819Z,18.40
2022-10-18T07:04:07.234Z,18.40
2022-10-18T07:06:35.655Z,18.50
2022-10-18T07:09:04.033Z,18.50
2022-10-18T07:11:32.437Z,18.50
2022-10-18T07:14:04.120Z,18.50
2022-10-18T07:16:33.806Z,18.50
2022-10-18T07:19:03.465Z,18.50
2022-10-18T07:21:32.183Z,18.60
2022-10-18T07:24:00.429Z,18.70
2022-10-18T07:26:30.544Z,18.80
2022-10-18T07:29:01.923Z,18.80
2022-10-18T07:31:31.252Z,18.90
2022-10-18T07:33:59.548Z,19.00
2022-10-18T07:36:29.313Z,19.10
2022-10-18T07:38:57.869Z,19.10
2022-10-18T07:41:26.334Z,19.20
2022-10-18T07:43:54.972Z,19.20
2022-10-18T07:46:24.297Z,19.20
2022-10-18T07:48:53.433Z,19.20
2022-10-18T07:51:22.371Z,19.20
2022-10-18T07:53:52.183Z,19.20
2022-10-18T07:56:22.535Z,19.30
2022-10-18T07:58:52.953Z,19.30
2022-10-18T08:01:22.708Z,19.30
2022-10-18T08:03:51.985Z,19.40
2022-10-18T08:06:21.614Z,19.40
2022-10-18T08:08:52.214Z,19.40
2022-10-18T08:11:22.350Z,19.40
2022-10-18T08:13:51.486Z,19.40
2022-10-18T08:16:23.281Z,19.50
2022-10-18T08:18:51.669Z,19.60
2022-10-18T08:21:22.139Z,19.60
2022-10-18T08:23:51.896Z,19.60
2022-10-18T08:26:22.736Z,19.70
2022-10-18T08:29:10.243Z,19.70
2022-10-18T08:31:39.892Z,19.80
2022-10-18T08:34:08.182Z,19.90
2022-10-18T08:36:36.485Z,20.10
2022-10-18T08:39:06.088Z,20.20
2022-10-18T08:42:02.635Z,20.30
2022-10-18T08:44:33.811Z,20.40
2022-10-18T08:47:06.327Z,20.50
2022-10-18T08:49:46.286Z,20.60
2022-10-18T08:52:22.216Z,20.60
2022-10-18T08:55:02.179Z,20.80
2022-10-18T08:57:32.565Z,20.80
2022-10-18T09:00:02.735Z,20.90
2022-10-18T09:02:47.647Z,20.90
2022-10-18T09:05:24.032Z,21.00
2022-10-18T09:08:24.115Z,21.10
2022-10-18T09:11:05.638Z,21.20
2022-10-18T09:13:51.823Z,21.50
2022-10-18T09:16:28.051Z,21.70
2022-10-18T09:19:05.507Z,21.90
2022-10-18T09:21:47.434Z,22.10
2022-10-18T09:24:20.505Z,22.40
2022-10-18T09:26:53.211Z,22.60
2022-10-18T09:29:40.439Z,22.80
2022-10-18T09:32:22.309Z,22.90
2022-10-18T09:34:54.518Z,23.10
2022-10-18T09:37:25.298Z,23.10
2022-10-18T09:40:01.396Z,23.20
2022-10-18T09:42:36.412Z,23.20
2022-10-18T09:45:09.534Z,23.30
2022-10-18T09:47:42.289Z,23.20
2022-10-18T09:50:20.310Z,23.30
2022-10-18T09:52:54.230Z,23.30
2022-10-18T09:55:28.377Z,23.30
2022-10-18T09:58:01.446Z,23.30
2022-10-18T10:00:33.249Z,23.40
2022-10-18T10:03:02.682Z,23.40
2022-10-18T10:05:30.995Z,23.40
2022-10-18T10:08:02.582Z,23.50
2022-10-18T10:10:32.272Z,23.60
2022-10-18T10:13:08.184Z,23.80
2022-10-18T10:15:38.268Z,23.90
2022-10-18T10:18:20.230Z,24.00
2022-10-18T10:20:51.754Z,24.20
2022-10-18T10:23:28.335Z,24.40
2022-10-18T10:25:59.521Z,24.70
2022-10-18T10:28:31.621Z,25.10
2022-10-18T10:31:20.265Z,25.60
2022-10-18T10:33:58.852Z,26.20
2022-10-18T10:36:27.873Z,26.70
2022-10-18T10:39:05.828Z,27.20
2022-10-18T10:41:35.266Z,27.60
2022-10-18T10:44:14.901Z,28.00
2022-10-18T10:46:43.481Z,28.50
2022-10-18T10:49:40.410Z,28.90
2022-10-18T10:52:09.021Z,29.40
2022-10-18T10:54:52.521Z,29.90
2022-10-18T10:57:27.221Z,30.30
2022-10-18T10:59:59.704Z,30.60
2022-10-18T11:02:33.150Z,30.90
2022-10-18T11:05:22.889Z,31.30
2022-10-18T11:07:54.213Z,31.70
2022-10-18T11:10:25.547Z,32.20
2022-10-18T11:13:02.445Z,32.60
2022-10-18T11:15:37.535Z,32.70
2022-10-18T11:18:14.449Z,32.30
2022-10-18T11:20:46.607Z,31.70
2022-10-18T11:23:16.969Z,31.30
2022-10-18T11:26:05.116Z,30.80
2022-10-18T11:29:03.122Z,30.50
2022-10-18T11:31:41.686Z,30.10
2022-10-18T11:34:26.118Z,29.80
2022-10-18T11:37:22.835Z,29.50
2022-10-18T11:39:56.250Z,29.30
2022-10-18T11:42:39.149Z,29.00
2022-10-18T11:45:19.103Z,28.70
2022-10-18T11:47:55.981Z,28.40
2022-10-18T11:50:32.156Z,28.50
2022-10-18T11:53:10.650Z,28.80
2022-10-18T11:55:50.468Z,29.10
2022-10-18T11:58:39.368Z,29.30
2022-10-18T12:01:17.109Z,29.30
2022-10-18T12:03:54.795Z,29.30
2022-10-18T12:06:27.551Z,29.20
2022-10-18T12:08:59.834Z,29.00
2022-10-18T12:11:32.953Z,29.00
2022-10-18T12:14:03.381Z,29.30
2022-10-18T12:16:50.546Z,29.80
2022-10-18T12:19:26.762Z,30.40
2022-10-18T12:21:58.186Z,30.80
2022-10-18T12:24:29.323Z,30.80
2022-10-18T12:27:00.959Z,30.60
2022-10-18T12:29:34.496Z,30.50
2022-10-18T12:32:08.021Z,30.40
2022-10-18T12:34:43.064Z,30.20
2022-10-18T12:37:55.584Z,30.40
2022-10-18T12:40:27.043Z,31.10
2022-10-18T12:42:55.388Z,32.00
2022-10-18T12:45:30.259Z,32.50
2022-10-18T12:48:02.194Z,32.60
2022-10-18T12:50:37.824Z,32.30
2022-10-18T12:53:17.091Z,31.80
2022-10-18T12:55:47.791Z,31.20
2022-10-18T12:58:32.907Z,30.70
2022-10-18T13:01:07.817Z,30.70
2022-10-18T13:04:01.737Z,31.10
2022-10-18T13:07:18.318Z,31.90
2022-10-18T13:10:25.500Z,33.20
2022-10-18T13:13:24.465Z,34.60
2022-10-18T13:16:00.609Z,35.70
2022-10-18T13:18:39.554Z,36.70
2022-10-18T13:21:15.456Z,37.30
2022-10-18T13:23:58.983Z,37.60
2022-10-18T13:26:35.273Z,37.30
2022-10-18T13:29:19.804Z,36.90
2022-10-18T13:31:53.817Z,36.70
2022-10-18T13:34:27.832Z,36.70
2022-10-18T13:37:02.142Z,36.70
2022-10-18T13:39:31.721Z,37.00
2022-10-18T13:42:33.860Z,37.40
2022-10-18T13:45:39.650Z,37.70
2022-10-18T13:48:49.821Z,38.00
2022-10-18T13:51:36.669Z,37.70
2022-10-18T13:54:17.842Z,37.40
2022-10-18T13:57:04.876Z,36.80
2022-10-18T13:59:49.153Z,36.10
2022-10-18T14:02:53.408Z,35.80
2022-10-18T14:05:51.733Z,36.00
2022-10-18T14:08:25.501Z,36.30
2022-10-18T14:11:02.817Z,36.60
2022-10-18T14:13:39.184Z,37.00
2022-10-18T14:16:14.784Z,37.00
2022-10-18T14:18:46.256Z,37.00
2022-10-18T14:21:27.419Z,37.10
2022-10-18T14:23:58.709Z,37.40
2022-10-18T14:26:29.264Z,37.60
2022-10-18T14:29:06.310Z,37.90
2022-10-18T14:31:36.202Z,37.80
2022-10-18T14:34:04.889Z,37.80
2022-10-18T14:36:41.156Z,38.00
2022-10-18T14:39:20.581Z,38.50
2022-10-18T14:41:51.197Z,38.80
2022-10-18T14:44:22.220Z,39.10
2022-10-18T14:46:52.879Z,39.30
2022-10-18T14:49:22.547Z,39.40
2022-10-18T14:51:54.933Z,39.40
2022-10-18T14:54:30.646Z,39.50
2022-10-18T14:57:01.087Z,39.50
2022-10-18T14:59:31.749Z,39.20
2022-10-18T15:02:02.083Z,38.80
2022-10-18T15:04:33.127Z,38.20
2022-10-18T15:07:05.635Z,37.40
2022-10-18T15:09:35.884Z,36.90
2022-10-18T15:12:06.930Z,36.80
2022-10-18T15:14:35.940Z,36.60
2022-10-18T15:17:11.635Z,36.20
2022-10-18T15:19:42.263Z,35.90
2022-10-18T15:22:31.622Z,35.90
2022-10-18T15:25:19.068Z,35.90
2022-10-18T15:27:49.466Z,36.00
2022-10-18T15:30:27.277Z,36.10
2022-10-18T15:32:57.496Z,36.10
2022-10-18T15:35:29.902Z,36.20
2022-10-18T15:38:03.461Z,36.10
2022-10-18T15:40:41.665Z,36.00
2022-10-18T15:43:36.247Z,35.40
2022-10-18T15:46:06.883Z,34.50
2022-10-18T15:48:38.079Z,33.30
2022-10-18T15:51:07.787Z,32.30
2022-10-18T15:53:44.191Z,31.30
2022-10-18T15:56:34.035Z,30.50
2022-10-18T15:59:04.575Z,29.60
2022-10-18T16:01:37.355Z,28.90
2022-10-18T16:04:14.967Z,28.40
2022-10-18T16:06:43.304Z,27.90
2022-10-18T16:09:16.842Z,27.50
2022-10-18T16:11:45.660Z,27.10
2022-10-18T16:14:14.493Z,26.80
2022-10-18T16:16:43.106Z,26.50
2022-10-18T16:19:14.736Z,26.20
2022-10-18T16:21:43.848Z,25.80
2022-10-18T16:24:13.542Z,25.50
2022-10-18T16:26:42.218Z,25.20
2022-10-18T16:29:14.276Z,25.00
2022-10-18T16:31:46.404Z,24.70
2022-10-18T16:34:15.126Z,24.40
2022-10-18T16:36:43.425Z,24.20
2022-10-18T16:39:16.342Z,23.90
2022-10-18T16:41:44.831Z,23.80
2022-10-18T16:44:13.248Z,23.60
2022-10-18T16:46:42.010Z,23.40
2022-10-18T16:49:24.256Z,23.20
2022-10-18T16:51:54.017Z,23.10
2022-10-18T16:54:24.385Z,22.90
2022-10-18T16:56:52.742Z,22.80
2022-10-18T16:59:25.756Z,22.60
2022-10-18T17:01:54.099Z,22.40
2022-10-18T17:04:22.461Z,22.30
2022-10-18T17:06:59.254Z,22.20
2022-10-18T17:09:28.909Z,22.10
2022-10-18T17:11:57.109Z,22.00
2022-10-18T17:14:28.119Z,21.90
2022-10-18T17:16:57.497Z,21.80
2022-10-18T17:19:25.993Z,21.70
2022-10-18T17:21:56.037Z,21.60
2022-10-18T17:24:28.605Z,21.60
2022-10-18T17:26:56.946Z,21.50
2022-10-18T17:29:25.235Z,21.40
2022-10-18T17:31:53.462Z,21.30
2022-10-18T17:34:21.834Z,21.20
2022-10-18T17:36:50.138Z,21.10
2022-10-18T17:39:18.574Z,21.10
2022-10-18T17:41:48.265Z,21.00
2022-10-18T17:44:16.613Z,21.00
2022-10-18T17:46:45.169Z,20.90
2022-10-18T17:49:14.098Z,20.80
2022-10-18T17:51:42.941Z,20.70
2022-10-18T17:54:11.314Z,20.60
2022-10-18T17:56:40.873Z,20.60
2022-10-18T17:59:10.515Z,20.50
2022-10-18T18:01:39.215Z,20.40
2022-10-18T18:04:07.775Z,20.30
2022-10-18T18:06:39.112Z,20.20
2022-10-18T18:09:10.102Z,20.20
2022-10-18T18:11:41.382Z,20.10
2022-10-18T18:14:11.323Z,20.00
2022-10-18T18:16:41.523Z,19.90
2022-10-18T18:19:10.836Z,19.90
2022-10-18T18:21:39.905Z,19.80
2022-10-18T18:24:10.063Z,19.70
2022-10-18T18:26:39.952Z,19.70
2022-10-18T18:29:09.865Z,19.60
2022-10-18T18:31:41.290Z,19.50
2022-10-18T18:34:12.026Z,19.50
2022-10-18T18:36:40.464Z,19.40
2022-10-18T18:39:09.729Z,19.40
2022-10-18T18:41:38.476Z,19.30
2022-10-18T18:44:07.256Z,19.30
2022-10-18T18:46:38.933Z,19.20
2022-10-18T18:49:08.247Z,19.20
2022-10-18T18:51:39.663Z,19.20
2022-10-18T18:54:08.649Z,19.10
2022-10-18T18:56:37.553Z,19.10
2022-10-18T18:59:06.097Z,19.10
2022-10-18T19:01:38.249Z,19.10
2022-10-18T19:04:08.439Z,19.00
2022-10-18T19:06:39.511Z,19.00
2022-10-18T19:09:13.263Z,19.00
2022-10-18T19:11:41.849Z,18.90
2022-10-18T19:14:10.290Z,18.90
2022-10-18T19:16:41.333Z,18.90
2022-10-18T19:19:12.689Z,18.90
2022-10-18T19:21:43.356Z,18.80
2022-10-18T19:24:11.835Z,18.80
2022-10-18T19:26:45.014Z,18.80
2022-10-18T19:29:15.640Z,18.70
2022-10-18T19:31:46.209Z,18.70
2022-10-18T19:34:16.337Z,18.60
2022-10-18T19:36:46.635Z,18.50
2022-10-18T19:39:18.327Z,18.50
2022-10-18T19:41:49.482Z,18.40
2022-10-18T19:44:18.583Z,18.30
2022-10-18T19:46:49.115Z,18.20
2022-10-18T19:49:17.863Z,18.10
2022-10-18T19:51:46.819Z,18.10
2022-10-18T19:54:16.371Z,18.00
2022-10-18T19:56:47.397Z,17.90
2022-10-18T19:59:17.591Z,17.90
2022-10-18T20:01:46.950Z,17.80
2022-10-18T20:04:17.490Z,17.70
2022-10-18T20:06:46.560Z,17.70
2022-10-18T20:09:19.347Z,17.60
2022-10-18T20:11:49.243Z,17.60
2022-10-18T20:14:17.644Z,17.60
2022-10-18T20:16:46.035Z,17.60
2022-10-18T20:19:14.566Z,17.60
2022-10-18T20:21:44.398Z,17.50
2022-10-18T20:24:14.970Z,17.50
2022-10-18T20:26:44.287Z,17.40
2022-10-18T20:29:13.888Z,17.40
2022-10-18T20:31:42.347Z,17.40
2022-10-18T20:34:13.877Z,17.30
2022-10-18T20:36:44.218Z,17.30
2022-10-18T20:39:12.564Z,17.30
2022-10-18T20:41:42.052Z,17.20
2022-10-18T20:44:14.821Z,17.20
2022-10-18T20:46:44.035Z,17.10
2022-10-18T20:49:15.359Z,17.10
2022-10-18T20:51:45.883Z,17.00
2022-10-18T20:54:14.400Z,17.00
2022-10-18T20:56:42.819Z,16.90
2022-10-18T20:59:11.586Z,16.80
2022-10-18T21:01:41.053Z,16.80
2022-10-18T21:04:11.283Z,16.70
2022-10-18T21:06:42.335Z,16.70
2022-10-18T21:09:13.366Z,16.60
2022-10-18T21:11:43.433Z,16.60
2022-10-18T21:14:14.065Z,16.60
2022-10-18T21:16:43.327Z,16.50
2022-10-18T21:19:14.246Z,16.50
2022-10-18T21:21:44.014Z,16.50
2022-10-18T21:24:14.693Z,16.50
2022-10-18T21:26:43.578Z,16.40
2022-10-18T21:29:13.020Z,16.40
2022-10-18T21:31:42.656Z,16.30
2022-10-18T21:34:14.042Z,16.30
2022-10-18T21:36:43.846Z,16.30
2022-10-18T21:39:15.139Z,16.20
2022-10-18T21:41:43.803Z,16.20
2022-10-18T21:44:12.586Z,16.10
2022-10-18T21:46:43.170Z,16.10
2022-10-18T21:49:12.160Z,16.00
2022-10-18T21:51:41.064Z,16.00
2022-10-18T21:54:12.670Z,15.90
2022-10-18T21:56:42.638Z,15.80
2022-10-18T21:59:12.614Z,15.70
2022-10-18T22:01:41.286Z,15.70
2022-10-18T22:04:20.007Z,15.60
2022-10-18T22:06:48.418Z,15.60
2022-10-18T22:09:16.795Z,15.50
2022-10-18T22:11:48.554Z,15.50
2022-10-18T22:14:17.000Z,15.40
2022-10-18T22:16:45.349Z,15.40
2022-10-18T22:19:14.062Z,15.40
2022-10-18T22:21:42.406Z,15.50
2022-10-18T22:24:11.052Z,15.50
2022-10-18T22:26:41.349Z,15.60
2022-10-18T22:29:13.497Z,15.60
2022-10-18T22:31:44.210Z,15.60
2022-10-18T22:34:15.212Z,15.60
2022-10-18T22:36:43.985Z,15.60
2022-10-18T22:39:14.249Z,15.60
2022-10-18T22:41:42.977Z,15.60
2022-10-18T22:44:14.737Z,15.60
2022-10-18T22:46:43.821Z,15.60
2022-10-18T22:49:13.186Z,15.70
2022-10-18T22:51:41.628Z,15.70
2022-10-18T22:54:10.263Z,15.80
2022-10-18T22:56:38.559Z,15.80
2022-10-18T22:59:06.839Z,15.90
2022-10-18T23:01:36.537Z,15.90
2022-10-18T23:04:05.476Z,15.90
2022-10-18T23:06:35.604Z,16.00
2022-10-18T23:09:07.053Z,16.00
2022-10-18T23:11:36.870Z,15.90
2022-10-18T23:14:06.639Z,15.80
2022-10-18T23:16:36.371Z,15.80
2022-10-18T23:19:05.150Z,15.70
2022-10-18T23:21:35.339Z,15.70
2022-10-18T23:24:03.706Z,15.70
2022-10-18T23:26:32.477Z,15.70
2022-10-18T23:29:00.896Z,15.70
2022-10-18T23:31:31.092Z,15.80
2022-10-18T23:34:02.466Z,15.90
2022-10-18T23:36:31.749Z,16.00
2022-10-18T23:39:00.178Z,16.10
2022-10-18T23:41:28.492Z,16.20
2022-10-18T23:43:56.998Z,16.20
2022-10-18T23:46:25.774Z,16.30
2022-10-18T23:48:54.144Z,16.40
2022-10-18T23:51:23.796Z,16.40
2022-10-18T23:53:52.039Z,16.50
2022-10-18T23:56:20.379Z,16.50
2022-10-18T23:58:48.958Z,16.60
